Terminal Aerodrome Forecast
Issued by NWS

Home | Current Version | Previous Version | Text Only | Print | Product List | Glossary On
Versions: 1 2 3 4 5 6 7 8 9 10 11 12 13 14 15 16 17 18 19 20 21 22 23 24 25 26 27 28
000
FTUS42 KJAX 191125
TAFVQQ
TAF
KVQQ 191125Z 1912/2012 01008KT P6SM VCSH SCT018 BKN025
     FM191600 03010G18KT P6SM VCSH SCT025 BKN035
     FM192200 03009KT P6SM VCSH SCT025 BKN035
     FM200200 02004KT P6SM VCSH SCT030=

USA.gov is the U.S. government's official web portal to all federal, state and local government web resources and services.